createdAt,value
2022-08-24T00:01:01.881Z,26.09
2022-08-24T00:03:30.761Z,26.08
2022-08-24T00:06:02.165Z,26.09
2022-08-24T00:08:29.688Z,26.08
2022-08-24T00:10:57.153Z,26.08
2022-08-24T00:13:29.470Z,26.08
2022-08-24T00:15:59.979Z,26.07
2022-08-24T00:18:27.638Z,26.07
2022-08-24T00:20:55.390Z,26.06
2022-08-24T00:23:22.818Z,26.05
2022-08-24T00:25:50.919Z,26.05
2022-08-24T00:28:18.332Z,26.05
2022-08-24T00:30:47.032Z,26.03
2022-08-24T00:33:14.812Z,26.04
2022-08-24T00:35:42.343Z,26.04
2022-08-24T00:38:09.780Z,26.04
2022-08-24T00:40:39.761Z,26.03
2022-08-24T00:43:08.153Z,26.03
2022-08-24T00:45:38.435Z,26.02
2022-08-24T00:48:12.328Z,26.02
2022-08-24T00:50:42.361Z,26.02
2022-08-24T00:53:11.703Z,26.01
2022-08-24T00:55:40.405Z,26.00
2022-08-24T00:58:17.810Z,25.99
2022-08-24T01:00:50.428Z,25.98
2022-08-24T01:03:19.170Z,25.99
2022-08-24T01:05:46.897Z,25.98
2022-08-24T01:08:15.671Z,25.99
2022-08-24T01:10:44.200Z,26.00
2022-08-24T01:13:12.133Z,26.00
2022-08-24T01:15:40.590Z,26.00
2022-08-24T01:18:26.100Z,26.00
2022-08-24T01:20:58.154Z,25.99
2022-08-24T01:23:36.390Z,25.99
2022-08-24T01:26:04.314Z,25.98
2022-08-24T01:28:31.754Z,25.97
2022-08-24T01:31:00.553Z,25.97
2022-08-24T01:33:29.676Z,25.96
2022-08-24T01:35:59.409Z,25.97
2022-08-24T01:38:26.844Z,25.95
2022-08-24T01:40:57.743Z,25.96
2022-08-24T01:43:25.186Z,26.01
2022-08-24T01:45:52.637Z,26.00
2022-08-24T01:48:23.149Z,26.02
2022-08-24T01:50:52.606Z,25.99
2022-08-24T01:53:22.176Z,25.96
2022-08-24T01:55:50.188Z,25.95
2022-08-24T01:58:18.903Z,25.94
2022-08-24T02:00:46.337Z,25.93
2022-08-24T02:03:14.940Z,25.92
2022-08-24T02:05:46.019Z,25.94
2022-08-24T02:08:15.544Z,25.92
2022-08-24T02:10:48.659Z,25.90
2022-08-24T02:13:25.334Z,25.87
2022-08-24T02:15:52.871Z,25.87
2022-08-24T02:18:20.714Z,25.86
2022-08-24T02:20:48.122Z,25.86
2022-08-24T02:23:15.574Z,25.85
2022-08-24T02:25:43.212Z,25.85
2022-08-24T02:28:10.904Z,25.83
2022-08-24T02:30:40.267Z,25.83
2022-08-24T02:33:08.060Z,25.87
2022-08-24T02:35:35.609Z,25.87
2022-08-24T02:38:03.084Z,25.87
2022-08-24T02:40:32.343Z,25.87
2022-08-24T02:43:00.470Z,25.85
2022-08-24T02:45:27.921Z,25.82
2022-08-24T02:47:57.099Z,25.82
2022-08-24T02:50:26.082Z,25.82
2022-08-24T02:52:54.221Z,25.81
2022-08-24T02:55:21.939Z,25.82
2022-08-24T02:57:52.351Z,25.82
2022-08-24T03:00:21.318Z,25.81
2022-08-24T03:02:52.309Z,25.80
2022-08-24T03:05:21.732Z,25.80
2022-08-24T03:07:49.428Z,25.81
2022-08-24T03:10:20.011Z,25.81
2022-08-24T03:12:47.671Z,25.82
2022-08-24T03:15:15.727Z,25.82
2022-08-24T03:17:43.255Z,25.85
2022-08-24T03:20:13.018Z,25.85
2022-08-24T03:22:42.648Z,25.87
2022-08-24T03:25:10.892Z,25.85
2022-08-24T03:27:38.484Z,25.84
2022-08-24T03:30:07.017Z,25.86
2022-08-24T03:32:34.987Z,25.83
2022-08-24T03:35:04.304Z,25.83
2022-08-24T03:37:32.711Z,25.81
2022-08-24T03:40:01.595Z,25.81
2022-08-24T03:42:29.534Z,25.81
2022-08-24T03:44:57.014Z,25.81
2022-08-24T03:47:24.444Z,25.80
2022-08-24T03:49:51.930Z,25.81
2022-08-24T03:52:19.411Z,25.81
2022-08-24T03:54:49.749Z,25.79
2022-08-24T03:57:18.501Z,25.80
2022-08-24T03:59:46.731Z,25.81
2022-08-24T04:02:15.186Z,25.80
2022-08-24T04:04:43.169Z,25.77
2022-08-24T04:07:11.810Z,25.77
2022-08-24T04:09:39.274Z,25.75
2022-08-24T04:12:06.933Z,25.75
2022-08-24T04:14:36.062Z,25.75
2022-08-24T04:17:10.460Z,25.75
2022-08-24T04:19:57.361Z,25.74
2022-08-24T04:22:27.852Z,25.74
2022-08-24T04:24:55.620Z,25.72
2022-08-24T04:27:23.060Z,25.73
2022-08-24T04:29:51.983Z,25.74
2022-08-24T04:32:19.907Z,25.75
2022-08-24T04:34:47.905Z,25.76
2022-08-24T04:37:17.779Z,25.77
2022-08-24T04:39:51.680Z,25.77
2022-08-24T04:42:33.690Z,25.74
2022-08-24T04:45:02.999Z,25.73
2022-08-24T04:47:30.459Z,25.73
2022-08-24T04:50:00.241Z,25.73
2022-08-24T04:52:29.135Z,25.74
2022-08-24T04:54:57.262Z,25.74
2022-08-24T04:57:26.892Z,25.75
2022-08-24T04:59:57.428Z,25.77
2022-08-24T05:02:26.228Z,25.77
2022-08-24T05:04:57.162Z,25.76
2022-08-24T05:07:25.339Z,25.76
2022-08-24T05:09:52.775Z,25.77
2022-08-24T05:12:21.027Z,25.76
2022-08-24T05:14:59.373Z,25.79
2022-08-24T05:17:28.360Z,25.80
2022-08-24T05:19:55.819Z,25.79
2022-08-24T05:22:23.271Z,25.78
2022-08-24T05:24:54.370Z,25.75
2022-08-24T05:27:25.243Z,25.75
2022-08-24T05:29:53.858Z,25.74
2022-08-24T05:32:21.367Z,25.74
2022-08-24T05:34:51.363Z,25.74
2022-08-24T05:37:18.964Z,25.76
2022-08-24T05:40:04.891Z,25.76
2022-08-24T05:42:33.960Z,25.78
2022-08-24T05:45:03.209Z,25.78
2022-08-24T05:47:31.107Z,25.79
2022-08-24T05:50:07.367Z,25.80
2022-08-24T05:52:35.401Z,25.80
2022-08-24T05:55:03.219Z,25.80
2022-08-24T05:57:32.910Z,25.79
2022-08-24T06:00:12.823Z,25.80
2022-08-24T06:02:52.793Z,25.80
2022-08-24T06:05:22.651Z,25.81
2022-08-24T06:07:50.388Z,25.80
2022-08-24T06:10:35.792Z,25.82
2022-08-24T06:13:05.286Z,25.81
2022-08-24T06:15:33.020Z,25.83
2022-08-24T06:18:00.567Z,25.85
2022-08-24T06:20:29.405Z,25.87
2022-08-24T06:22:58.143Z,25.85
2022-08-24T06:25:51.058Z,25.87
2022-08-24T06:28:18.551Z,25.88
2022-08-24T06:30:46.014Z,25.89
2022-08-24T06:33:17.984Z,25.88
2022-08-24T06:35:49.158Z,25.88
2022-08-24T06:38:17.455Z,25.89
2022-08-24T06:40:47.489Z,25.89
2022-08-24T06:43:15.115Z,25.87
2022-08-24T06:45:53.760Z,25.88
2022-08-24T06:48:24.570Z,25.87
2022-08-24T06:50:53.877Z,25.87
2022-08-24T06:53:21.729Z,25.89
2022-08-24T06:55:50.341Z,25.88
2022-08-24T06:58:18.215Z,25.89
2022-08-24T07:00:45.724Z,25.87
2022-08-24T07:03:14.110Z,25.89
2022-08-24T07:05:54.546Z,25.89
2022-08-24T07:08:36.281Z,25.88
2022-08-24T07:11:04.348Z,25.89
2022-08-24T07:13:31.994Z,25.90
2022-08-24T07:15:59.587Z,25.90
2022-08-24T07:18:27.821Z,25.89
2022-08-24T07:20:56.708Z,25.89
2022-08-24T07:23:41.915Z,25.87
2022-08-24T07:26:20.886Z,25.89
2022-08-24T07:28:49.362Z,25.89
2022-08-24T07:31:17.878Z,25.89
2022-08-24T07:33:56.289Z,25.90
2022-08-24T07:36:25.082Z,25.91
2022-08-24T07:38:57.216Z,25.90
2022-08-24T07:41:56.795Z,25.91
2022-08-24T07:44:13.378Z,25.90
2022-08-24T07:46:41.408Z,25.90
2022-08-24T07:49:20.290Z,25.89
2022-08-24T07:51:59.770Z,25.91
2022-08-24T07:54:28.662Z,25.90
2022-08-24T07:56:56.449Z,25.90
2022-08-24T07:59:24.060Z,25.90
2022-08-24T08:01:52.255Z,25.89
2022-08-24T08:04:21.934Z,25.91
2022-08-24T08:06:49.574Z,25.91
2022-08-24T08:09:19.146Z,25.91
2022-08-24T08:11:46.680Z,25.92
2022-08-24T08:14:14.757Z,25.94
2022-08-24T08:16:42.385Z,25.94
2022-08-24T08:19:10.436Z,25.94
2022-08-24T08:22:01.489Z,25.95
2022-08-24T08:24:31.676Z,25.94
2022-08-24T08:27:03.178Z,25.94
2022-08-24T08:29:36.539Z,25.94
2022-08-24T08:32:05.154Z,25.94
2022-08-24T08:34:32.747Z,25.95
2022-08-24T08:37:00.419Z,25.94
2022-08-24T08:39:28.467Z,25.95
2022-08-24T08:42:24.879Z,25.94
2022-08-24T08:45:16.694Z,25.95
2022-08-24T08:48:19.145Z,25.95
2022-08-24T08:50:58.038Z,25.95
2022-08-24T08:53:36.547Z,25.94
2022-08-24T08:56:06.824Z,25.96
2022-08-24T08:58:53.713Z,25.94
2022-08-24T09:01:46.531Z,25.94
2022-08-24T09:04:48.603Z,25.96
2022-08-24T09:07:28.448Z,25.97
2022-08-24T09:10:23.556Z,25.96
2022-08-24T09:12:59.147Z,25.98
2022-08-24T09:15:48.799Z,25.99
2022-08-24T09:18:30.816Z,26.00
2022-08-24T09:21:09.408Z,26.01
2022-08-24T09:23:40.500Z,26.02
2022-08-24T09:26:10.413Z,26.04
2022-08-24T09:28:43.913Z,26.04
2022-08-24T09:31:34.194Z,26.04
2022-08-24T09:34:09.473Z,26.04
2022-08-24T09:36:48.146Z,26.05
2022-08-24T09:39:21.375Z,26.06
2022-08-24T09:42:01.870Z,26.11
2022-08-24T09:44:48.506Z,26.13
2022-08-24T09:47:37.338Z,26.16
2022-08-24T09:50:32.132Z,26.17
2022-08-24T09:53:09.930Z,26.15
2022-08-24T09:56:20.627Z,26.18
2022-08-24T09:58:57.696Z,26.19
2022-08-24T10:01:29.446Z,26.18
2022-08-24T10:04:08.442Z,26.16
2022-08-24T10:06:42.349Z,26.18
2022-08-24T10:09:34.769Z,26.23
2022-08-24T10:12:05.496Z,26.25
2022-08-24T10:14:42.526Z,26.22
2022-08-24T10:17:12.081Z,26.27
2022-08-24T10:19:52.359Z,26.26
2022-08-24T10:22:25.800Z,26.30
2022-08-24T10:25:02.058Z,26.30
2022-08-24T10:27:42.561Z,26.28
2022-08-24T10:30:34.149Z,26.33
2022-08-24T10:33:07.241Z,26.35
2022-08-24T10:35:37.831Z,26.37
2022-08-24T10:38:42.163Z,26.39
2022-08-24T10:41:39.290Z,26.42
2022-08-24T10:44:26.542Z,26.43
2022-08-24T10:46:58.600Z,26.43
2022-08-24T10:50:04.227Z,26.46
2022-08-24T10:52:59.725Z,26.46
2022-08-24T10:55:29.671Z,26.49
2022-08-24T10:58:08.265Z,26.49
2022-08-24T11:00:36.082Z,26.48
2022-08-24T11:03:12.083Z,26.53
2022-08-24T11:05:42.931Z,26.53
2022-08-24T11:08:13.707Z,26.53
2022-08-24T11:10:41.586Z,26.54
2022-08-24T11:13:19.870Z,26.56
2022-08-24T11:15:48.640Z,26.57
2022-08-24T11:18:16.913Z,26.58
2022-08-24T11:20:46.825Z,26.57
2022-08-24T11:23:17.859Z,26.60
2022-08-24T11:25:58.790Z,26.57
2022-08-24T11:28:30.316Z,26.55
2022-08-24T11:30:58.129Z,26.56
2022-08-24T11:33:28.391Z,26.61
2022-08-24T11:35:55.992Z,26.64
2022-08-24T11:38:25.932Z,26.65
2022-08-24T11:40:55.596Z,26.66
2022-08-24T11:43:29.413Z,26.68
2022-08-24T11:46:04.393Z,26.70
2022-08-24T11:48:37.394Z,26.71
2022-08-24T11:51:07.111Z,26.74
2022-08-24T11:56:18.693Z,26.77
2022-08-24T11:58:52.626Z,26.78
2022-08-24T12:01:24.268Z,26.80
2022-08-24T12:04:01.930Z,26.83
2022-08-24T12:06:35.426Z,26.78
2022-08-24T12:09:07.138Z,26.79
2022-08-24T12:11:39.169Z,26.81
2022-08-24T12:14:08.776Z,26.76
2022-08-24T12:16:39.297Z,26.76
2022-08-24T12:19:07.918Z,26.82
2022-08-24T12:21:37.533Z,26.85
2022-08-24T12:24:08.772Z,26.85
2022-08-24T12:26:37.943Z,26.86
2022-08-24T12:29:07.779Z,26.89
2022-08-24T12:31:39.789Z,26.86
2022-08-24T12:34:11.485Z,26.84
2022-08-24T12:36:43.887Z,26.81
2022-08-24T12:39:13.878Z,26.82
2022-08-24T12:41:45.334Z,26.89
2022-08-24T12:44:14.073Z,26.89
2022-08-24T12:46:43.028Z,26.84
2022-08-24T12:49:15.128Z,26.81
2022-08-24T12:51:51.837Z,26.85
2022-08-24T12:54:33.309Z,26.91
2022-08-24T12:57:07.652Z,26.92
2022-08-24T12:59:38.144Z,26.94
2022-08-24T13:02:06.600Z,26.94
2022-08-24T13:04:37.706Z,26.95
2022-08-24T13:07:07.987Z,26.98
2022-08-24T13:09:38.053Z,26.99
2022-08-24T13:12:51.932Z,27.02
2022-08-24T13:15:26.104Z,27.02
2022-08-24T13:17:58.848Z,27.02
2022-08-24T13:20:31.374Z,27.04
2022-08-24T13:23:05.839Z,27.08
2022-08-24T13:25:55.697Z,27.04
2022-08-24T13:28:40.636Z,27.02
2022-08-24T13:31:15.564Z,27.00
2022-08-24T13:33:44.898Z,26.99
2022-08-24T13:36:44.874Z,27.00
2022-08-24T13:39:16.600Z,27.00
2022-08-24T13:42:13.950Z,27.00
2022-08-24T13:45:05.725Z,26.98
2022-08-24T13:47:35.866Z,26.99
2022-08-24T13:50:09.270Z,27.04
2022-08-24T13:52:45.454Z,27.06
2022-08-24T13:55:29.504Z,27.08
2022-08-24T13:58:10.847Z,27.09
2022-08-24T14:00:44.334Z,27.11
2022-08-24T14:03:21.351Z,27.11
2022-08-24T14:05:50.291Z,27.10
2022-08-24T14:08:37.186Z,27.08
2022-08-24T14:11:10.320Z,27.08
2022-08-24T14:13:49.583Z,27.08
2022-08-24T14:16:46.745Z,27.05
2022-08-24T14:19:19.258Z,27.04
2022-08-24T14:21:49.617Z,27.08
2022-08-24T14:24:25.368Z,27.11
2022-08-24T14:27:35.026Z,27.13
2022-08-24T14:30:50.311Z,27.15
2022-08-24T14:33:28.891Z,27.17
2022-08-24T14:36:13.321Z,27.19
2022-08-24T14:38:57.992Z,27.20
2022-08-24T14:41:34.904Z,27.21
2022-08-24T14:44:06.971Z,27.19
2022-08-24T14:46:39.284Z,27.23
2022-08-24T14:49:14.328Z,27.23
2022-08-24T14:51:50.823Z,27.24
2022-08-24T14:54:25.499Z,27.25
2022-08-24T14:56:59.511Z,27.24
2022-08-24T14:59:38.543Z,27.26
2022-08-24T15:02:28.158Z,27.22
2022-08-24T15:04:57.195Z,27.20
2022-08-24T15:07:26.993Z,27.20
2022-08-24T15:09:55.694Z,27.17
2022-08-24T15:12:38.407Z,27.21
2022-08-24T15:15:10.881Z,27.23
2022-08-24T15:17:44.246Z,27.23
2022-08-24T15:20:17.042Z,27.25
2022-08-24T15:22:46.203Z,27.26
2022-08-24T15:25:19.218Z,27.26
2022-08-24T15:27:48.923Z,27.28
2022-08-24T15:30:22.211Z,27.29
2022-08-24T15:32:51.806Z,27.30
2022-08-24T15:35:29.980Z,27.29
2022-08-24T15:37:57.817Z,27.28
2022-08-24T15:40:29.441Z,27.26
2022-08-24T15:42:58.243Z,27.30
2022-08-24T15:45:26.116Z,27.31
2022-08-24T15:47:54.075Z,27.30
2022-08-24T15:50:23.491Z,27.31
2022-08-24T15:52:55.103Z,27.31
2022-08-24T15:55:37.808Z,27.28
2022-08-24T15:58:21.208Z,27.29
2022-08-24T16:01:06.712Z,27.32
2022-08-24T16:03:46.376Z,27.30
2022-08-24T16:06:25.999Z,27.30
2022-08-24T16:09:02.990Z,27.31
2022-08-24T16:11:33.327Z,27.30
2022-08-24T16:14:00.787Z,27.30
2022-08-24T16:16:36.535Z,27.31
2022-08-24T16:19:08.450Z,27.31
2022-08-24T16:21:38.303Z,27.30
2022-08-24T16:24:09.252Z,27.29
2022-08-24T16:26:52.820Z,27.28
2022-08-24T16:29:59.206Z,27.29
2022-08-24T16:32:29.671Z,27.27
2022-08-24T16:35:15.346Z,27.26
2022-08-24T16:37:42.830Z,27.27
2022-08-24T16:40:12.348Z,27.27
2022-08-24T16:42:39.880Z,27.27
2022-08-24T16:45:09.485Z,27.26
2022-08-24T16:47:36.940Z,27.26
2022-08-24T16:50:04.810Z,27.26
2022-08-24T16:52:32.281Z,27.26
2022-08-24T16:55:01.366Z,27.25
2022-08-24T16:57:30.990Z,27.26
2022-08-24T16:59:58.671Z,27.25
2022-08-24T17:02:26.497Z,27.24
2022-08-24T17:04:54.525Z,27.25
2022-08-24T17:07:24.434Z,27.24
2022-08-24T17:09:51.917Z,27.23
2022-08-24T17:12:19.376Z,27.23
2022-08-24T17:14:48.108Z,27.23
2022-08-24T17:17:16.716Z,27.23
2022-08-24T17:19:45.892Z,27.24
2022-08-24T17:22:16.426Z,27.22
2022-08-24T17:24:44.165Z,27.21
2022-08-24T17:27:12.093Z,27.20
2022-08-24T17:29:39.583Z,27.19
2022-08-24T17:32:08.394Z,27.19
2022-08-24T17:34:36.000Z,27.18
2022-08-24T17:37:03.525Z,27.17
2022-08-24T17:39:30.958Z,27.19
2022-08-24T17:41:59.310Z,27.19
2022-08-24T17:44:28.035Z,27.16
2022-08-24T17:46:57.558Z,27.17
2022-08-24T17:49:26.365Z,27.16
2022-08-24T17:51:55.127Z,27.14
2022-08-24T17:54:22.816Z,27.14
2022-08-24T17:56:52.326Z,27.13
2022-08-24T17:59:24.394Z,27.12
2022-08-24T18:01:52.508Z,27.12
2022-08-24T18:04:20.424Z,27.12
2022-08-24T18:06:49.494Z,27.12
2022-08-24T18:09:18.664Z,27.11
2022-08-24T18:11:46.322Z,27.10
2022-08-24T18:14:13.947Z,27.10
2022-08-24T18:16:41.502Z,27.10
2022-08-24T18:19:08.978Z,27.10
2022-08-24T18:21:36.441Z,27.08
2022-08-24T18:24:05.376Z,27.05
2022-08-24T18:26:32.955Z,27.01
2022-08-24T18:29:04.779Z,26.98
2022-08-24T18:31:32.276Z,26.97
2022-08-24T18:33:59.745Z,27.01
2022-08-24T18:36:27.222Z,27.04
2022-08-24T18:38:54.697Z,27.02
2022-08-24T18:41:27.308Z,27.02
2022-08-24T18:43:55.210Z,27.00
2022-08-24T18:46:28.957Z,27.01
2022-08-24T18:48:56.418Z,27.03
2022-08-24T18:51:24.358Z,27.00
2022-08-24T18:53:58.381Z,27.01
2022-08-24T18:56:27.114Z,27.01
2022-08-24T18:58:54.873Z,27.02
2022-08-24T19:01:22.583Z,27.01
2022-08-24T19:03:50.338Z,27.01
2022-08-24T19:06:18.001Z,27.02
2022-08-24T19:08:45.457Z,27.01
2022-08-24T19:11:13.159Z,26.99
2022-08-24T19:13:41.907Z,26.99
2022-08-24T19:16:09.396Z,27.00
2022-08-24T19:18:36.899Z,26.99
2022-08-24T19:21:04.350Z,27.00
2022-08-24T19:23:34.989Z,26.97
2022-08-24T19:26:04.936Z,26.98
2022-08-24T19:31:22.126Z,26.95
2022-08-24T19:33:49.817Z,26.96
2022-08-24T19:36:17.747Z,26.97
2022-08-24T19:38:45.176Z,26.95
2022-08-24T19:41:14.230Z,26.95
2022-08-24T19:43:55.872Z,26.95
2022-08-24T19:46:24.742Z,26.94
2022-08-24T19:48:52.247Z,26.95
2022-08-24T19:51:19.692Z,26.93
2022-08-24T19:53:47.705Z,26.92
2022-08-24T19:56:15.181Z,26.92
2022-08-24T19:58:45.523Z,26.92
2022-08-24T20:01:14.254Z,26.92
2022-08-24T20:03:43.083Z,26.91
2022-08-24T20:06:10.562Z,26.92
2022-08-24T20:08:37.985Z,26.91
2022-08-24T20:11:06.184Z,26.90
2022-08-24T20:13:33.606Z,26.90
2022-08-24T20:16:01.065Z,26.90
2022-08-24T20:18:30.449Z,26.90
2022-08-24T20:20:59.260Z,26.90
2022-08-24T20:23:26.730Z,26.88
2022-08-24T20:25:54.484Z,26.89
2022-08-24T20:28:29.144Z,26.89
2022-08-24T20:30:57.564Z,26.89
2022-08-24T20:33:27.535Z,26.87
2022-08-24T20:35:54.988Z,26.87
2022-08-24T20:38:23.832Z,26.88
2022-08-24T20:40:51.469Z,26.90
2022-08-24T20:43:18.959Z,26.88
2022-08-24T20:45:46.404Z,26.87
2022-08-24T20:48:14.125Z,26.90
2022-08-24T20:50:43.223Z,26.90
2022-08-24T20:53:11.367Z,26.89
2022-08-24T20:55:40.094Z,26.88
2022-08-24T20:58:07.526Z,26.87
2022-08-24T21:00:35.016Z,26.87
2022-08-24T21:03:02.562Z,26.87
2022-08-24T21:05:30.077Z,26.85
2022-08-24T21:07:57.982Z,26.86
2022-08-24T21:10:27.203Z,26.88
2022-08-24T21:12:56.023Z,26.88
2022-08-24T21:15:23.584Z,26.90
2022-08-24T21:17:51.473Z,26.91
2022-08-24T21:20:19.722Z,26.89
2022-08-24T21:22:47.349Z,26.89
2022-08-24T21:25:14.969Z,26.90
2022-08-24T21:27:43.921Z,26.91
2022-08-24T21:30:15.050Z,26.90
2022-08-24T21:33:00.088Z,26.92
2022-08-24T21:35:27.601Z,26.92
2022-08-24T21:37:56.177Z,26.91
2022-08-24T21:40:23.715Z,26.91
2022-08-24T21:42:51.559Z,26.91
2022-08-24T21:45:20.321Z,26.91
2022-08-24T21:47:47.842Z,26.91
2022-08-24T21:50:15.608Z,26.90
2022-08-24T21:52:43.051Z,26.90
2022-08-24T21:55:14.766Z,26.88
2022-08-24T21:57:42.593Z,26.85
2022-08-24T22:00:13.380Z,26.84
2022-08-24T22:02:42.280Z,26.82
2022-08-24T22:05:10.031Z,26.79
2022-08-24T22:07:37.559Z,26.80
2022-08-24T22:10:07.284Z,26.76
2022-08-24T22:12:34.818Z,26.78
2022-08-24T22:15:02.320Z,26.76
2022-08-24T22:17:29.893Z,26.77
2022-08-24T22:19:58.860Z,26.75
2022-08-24T22:22:26.278Z,26.75
2022-08-24T22:24:53.709Z,26.75
2022-08-24T22:27:24.973Z,26.76
2022-08-24T22:29:53.219Z,26.76
2022-08-24T22:32:20.689Z,26.77
2022-08-24T22:34:48.126Z,26.78
2022-08-24T22:37:16.849Z,26.78
2022-08-24T22:39:44.389Z,26.77
2022-08-24T22:42:11.850Z,26.78
2022-08-24T22:44:39.359Z,26.78
2022-08-24T22:47:08.492Z,26.75
2022-08-24T22:49:43.873Z,26.77
2022-08-24T22:52:13.171Z,26.76
2022-08-24T22:54:41.932Z,26.76
2022-08-24T22:57:09.457Z,26.74
2022-08-24T22:59:37.996Z,26.75
2022-08-24T23:02:06.475Z,26.76
2022-08-24T23:04:35.090Z,26.75
2022-08-24T23:07:02.693Z,26.73
2022-08-24T23:09:36.653Z,26.71
2022-08-24T23:12:14.245Z,26.71
2022-08-24T23:14:41.806Z,26.71
2022-08-24T23:17:09.257Z,26.69
2022-08-24T23:19:54.080Z,26.72
2022-08-24T23:22:21.515Z,26.70
2022-08-24T23:24:49.144Z,26.72
2022-08-24T23:27:18.059Z,26.70
2022-08-24T23:29:45.914Z,26.67
2022-08-24T23:32:13.749Z,26.68
2022-08-24T23:34:45.561Z,26.66
2022-08-24T23:37:12.986Z,26.66
2022-08-24T23:39:40.426Z,26.65
2022-08-24T23:42:08.210Z,26.63
2022-08-24T23:44:37.570Z,26.62
2022-08-24T23:47:05.221Z,26.62
2022-08-24T23:49:32.675Z,26.62
2022-08-24T23:52:00.547Z,26.61
2022-08-24T23:54:28.038Z,26.61
2022-08-24T23:56:55.808Z,26.60
2022-08-24T23:59:24.097Z,26.61
